createdAt,value
2022-11-05T00:01:00.422Z,97346.91
2022-11-05T00:02:23.550Z,97350.09
2022-11-05T00:03:45.030Z,97347.84
2022-11-05T00:05:06.573Z,97357.59
2022-11-05T00:06:29.329Z,97346.31
2022-11-05T00:07:59.431Z,97351.03
2022-11-05T00:09:21.238Z,97346.25
2022-11-05T00:10:28.209Z,97350.06
2022-11-05T00:11:49.911Z,97344.31
2022-11-05T00:13:17.309Z,97356.44
2022-11-05T00:14:39.035Z,97347.38
2022-11-05T00:16:00.562Z,97346.47
2022-11-05T00:17:03.291Z,97348.50
2022-11-05T00:18:06.290Z,97347.53
2022-11-05T00:19:10.329Z,97337.28
2022-11-05T00:20:16.002Z,97339.63
2022-11-05T00:21:37.314Z,97342.63
2022-11-05T00:22:58.708Z,97339.63
2022-11-05T00:24:24.105Z,97333.31
2022-11-05T00:25:30.337Z,97341.28
2022-11-05T00:26:33.442Z,97333.50
2022-11-05T00:27:36.318Z,97331.50
2022-11-05T00:28:44.940Z,97336.69
2022-11-05T00:29:47.814Z,97325.63
2022-11-05T00:30:51.176Z,97321.19
2022-11-05T00:31:54.101Z,97324.94
2022-11-05T00:33:02.936Z,97328.09
2022-11-05T00:34:05.983Z,97316.84
2022-11-05T00:35:09.015Z,97326.37
2022-11-05T00:36:12.020Z,97323.94
2022-11-05T00:37:14.902Z,97319.03
2022-11-05T00:39:26.252Z,97321.94
2022-11-05T00:40:32.906Z,97314.03
2022-11-05T00:41:35.768Z,97318.94
2022-11-05T00:43:00.502Z,97321.41
2022-11-05T00:44:22.024Z,97318.81
2022-11-05T00:45:24.898Z,97318.41
2022-11-05T00:46:27.657Z,97316.97
2022-11-05T00:47:50.777Z,97308.50
2022-11-05T00:49:12.105Z,97320.88
2022-11-05T00:50:15.215Z,97313.56
2022-11-05T00:51:18.029Z,97318.00
2022-11-05T00:52:39.345Z,97311.81
2022-11-05T00:53:42.193Z,97317.63
2022-11-05T00:54:46.846Z,97318.34
2022-11-05T00:55:49.680Z,97311.16
2022-11-05T00:56:52.703Z,97319.19
2022-11-05T00:57:56.709Z,97311.00
2022-11-05T00:59:01.237Z,97320.22
2022-11-05T01:00:05.953Z,97316.19
2022-11-05T01:01:10.934Z,97321.66
2022-11-05T01:02:13.950Z,97320.22
2022-11-05T01:03:18.994Z,97322.06
2022-11-05T01:04:21.936Z,97317.69
2022-11-05T01:05:25.757Z,97327.53
2022-11-05T01:06:28.616Z,97320.34
2022-11-05T01:07:31.657Z,97323.09
2022-11-05T01:08:40.897Z,97330.44
2022-11-05T01:09:43.703Z,97326.53
2022-11-05T01:10:49.674Z,97327.09
2022-11-05T01:11:52.476Z,97321.94
2022-11-05T01:12:55.592Z,97319.63
2022-11-05T01:13:58.617Z,97312.94
2022-11-05T01:15:02.052Z,97316.84
2022-11-05T01:16:08.380Z,97317.09
2022-11-05T01:17:14.713Z,97309.94
2022-11-05T01:18:18.668Z,97327.97
2022-11-05T01:19:21.680Z,97323.47
2022-11-05T01:20:24.801Z,97331.25
2022-11-05T01:21:27.897Z,97329.66
2022-11-05T01:22:30.711Z,97333.59
2022-11-05T01:23:33.922Z,97326.09
2022-11-05T01:24:36.743Z,97340.53
2022-11-05T01:25:39.702Z,97331.16
2022-11-05T01:26:42.490Z,97338.97
2022-11-05T01:27:45.667Z,97331.09
2022-11-05T01:28:57.783Z,97331.53
2022-11-05T01:30:00.729Z,97335.97
2022-11-05T01:31:04.838Z,97341.97
2022-11-05T01:32:07.700Z,97329.28
2022-11-05T01:33:12.147Z,97335.50
2022-11-05T01:34:15.156Z,97329.91
2022-11-05T01:35:20.881Z,97332.38
2022-11-05T01:36:23.874Z,97337.28
2022-11-05T01:37:27.854Z,97323.44
2022-11-05T01:38:30.712Z,97328.19
2022-11-05T01:39:33.553Z,97328.91
2022-11-05T01:40:36.517Z,97321.19
2022-11-05T01:41:40.845Z,97330.34
2022-11-05T01:42:44.129Z,97323.72
2022-11-05T01:44:01.664Z,97325.03
2022-11-05T01:45:07.520Z,97321.81
2022-11-05T01:46:10.370Z,97321.41
2022-11-05T01:47:26.270Z,97324.94
2022-11-05T01:48:35.517Z,97318.00
2022-11-05T01:49:38.360Z,97317.87
2022-11-05T01:50:47.735Z,97321.06
2022-11-05T01:51:56.152Z,97321.06
2022-11-05T01:53:21.213Z,97318.47
2022-11-05T01:54:29.995Z,97324.94
2022-11-05T01:55:37.040Z,97326.53
2022-11-05T01:56:58.369Z,97326.69
2022-11-05T01:58:03.788Z,97334.72
2022-11-05T01:59:16.992Z,97340.94
2022-11-05T02:00:19.932Z,97340.19
2022-11-05T02:01:23.660Z,97345.09
2022-11-05T02:02:27.230Z,97347.31
2022-11-05T02:03:30.907Z,97345.47
2022-11-05T02:04:40.408Z,97343.88
2022-11-05T02:05:43.774Z,97345.31
2022-11-05T02:06:47.064Z,97347.19
2022-11-05T02:07:51.197Z,97346.88
2022-11-05T02:09:13.551Z,97340.00
2022-11-05T02:10:18.371Z,97338.41
2022-11-05T02:11:21.511Z,97337.72
2022-11-05T02:12:24.666Z,97345.50
2022-11-05T02:13:27.471Z,97349.78
2022-11-05T02:14:30.417Z,97333.81
2022-11-05T02:16:08.363Z,97346.03
2022-11-05T02:17:23.169Z,97339.41
2022-11-05T02:18:42.946Z,97349.31
2022-11-05T02:20:16.562Z,97354.94
2022-11-05T02:21:29.673Z,97351.06
2022-11-05T02:22:55.341Z,97359.00
2022-11-05T02:24:52.219Z,97363.75
2022-11-05T02:26:34.641Z,97352.28
2022-11-05T02:28:18.409Z,97361.00
2022-11-05T02:29:47.656Z,97358.16
2022-11-05T02:31:21.749Z,97362.94
2022-11-05T02:32:30.572Z,97361.34
2022-11-05T02:33:57.291Z,97351.72
2022-11-05T02:35:21.740Z,97362.81
2022-11-05T02:36:39.562Z,97349.56
2022-11-05T02:38:07.543Z,97356.78
2022-11-05T02:39:39.519Z,97361.25
2022-11-05T02:41:00.039Z,97355.66
2022-11-05T02:42:12.934Z,97362.53
2022-11-05T02:43:31.399Z,97365.09
2022-11-05T02:44:47.861Z,97370.31
2022-11-05T02:46:09.477Z,97369.03
2022-11-05T02:47:38.708Z,97364.56
2022-11-05T02:49:04.720Z,97362.97
2022-11-05T02:50:23.627Z,97362.66
2022-11-05T02:51:26.383Z,97371.31
2022-11-05T02:52:46.840Z,97373.06
2022-11-05T02:53:59.097Z,97367.59
2022-11-05T02:55:20.323Z,97364.03
2022-11-05T02:56:31.474Z,97364.59
2022-11-05T02:57:37.014Z,97368.19
2022-11-05T02:58:39.912Z,97367.59
2022-11-05T02:59:42.720Z,97367.59
2022-11-05T03:00:53.892Z,97370.63
2022-11-05T03:01:58.037Z,97380.84
2022-11-05T03:03:01.559Z,97377.84
2022-11-05T03:04:09.770Z,97384.00
2022-11-05T03:05:13.865Z,97381.75
2022-11-05T03:06:29.335Z,97376.28
2022-11-05T03:08:06.999Z,97379.56
2022-11-05T03:09:23.810Z,97378.72
2022-11-05T03:11:11.737Z,97373.66
2022-11-05T03:12:21.872Z,97372.25
2022-11-05T03:13:52.681Z,97376.56
2022-11-05T03:15:08.053Z,97377.13
2022-11-05T03:16:21.877Z,97375.41
2022-11-05T03:17:53.772Z,97377.84
2022-11-05T03:19:30.309Z,97372.34
2022-11-05T03:20:40.086Z,97379.13
2022-11-05T03:21:48.455Z,97382.28
2022-11-05T03:23:04.141Z,97387.50
2022-11-05T03:24:17.970Z,97385.75
2022-11-05T03:25:24.771Z,97389.06
2022-11-05T03:26:31.902Z,97379.56
2022-11-05T03:27:39.371Z,97385.31
2022-11-05T03:28:48.629Z,97383.75
2022-11-05T03:29:57.514Z,97386.19
2022-11-05T03:31:04.216Z,97392.81
2022-11-05T03:32:08.833Z,97397.25
2022-11-05T03:33:20.926Z,97400.41
2022-11-05T03:34:29.707Z,97401.28
2022-11-05T03:35:38.860Z,97401.87
2022-11-05T03:36:48.825Z,97391.06
2022-11-05T03:37:57.003Z,97392.69
2022-11-05T03:39:05.703Z,97400.72
2022-11-05T03:40:12.509Z,97404.59
2022-11-05T03:41:16.762Z,97402.44
2022-11-05T03:42:26.067Z,97400.00
2022-11-05T03:43:33.615Z,97406.19
2022-11-05T03:44:41.271Z,97403.75
2022-11-05T03:45:59.420Z,97392.69
2022-11-05T03:47:07.698Z,97394.09
2022-11-05T03:48:13.070Z,97398.28
2022-11-05T03:49:26.668Z,97403.03
2022-11-05T03:50:41.277Z,97404.63
2022-11-05T03:51:53.673Z,97399.59
2022-11-05T03:53:06.014Z,97404.78
2022-11-05T03:54:13.021Z,97413.09
2022-11-05T03:55:16.705Z,97409.19
2022-11-05T03:56:49.791Z,97404.47
2022-11-05T03:57:56.017Z,97406.91
2022-11-05T03:59:01.295Z,97397.28
2022-11-05T04:00:08.233Z,97402.87
2022-11-05T04:01:11.453Z,97417.41
2022-11-05T04:02:17.067Z,97411.66
2022-11-05T04:03:19.986Z,97409.94
2022-11-05T04:04:23.177Z,97411.78
2022-11-05T04:05:26.054Z,97406.75
2022-11-05T04:06:47.896Z,97406.75
2022-11-05T04:08:14.041Z,97396.56
2022-11-05T04:09:36.134Z,97395.13
2022-11-05T04:11:07.637Z,97398.12
2022-11-05T04:12:29.886Z,97394.13
2022-11-05T04:13:34.266Z,97390.38
2022-11-05T04:14:37.096Z,97383.78
2022-11-05T04:15:58.339Z,97391.81
2022-11-05T04:17:07.025Z,97384.47
2022-11-05T04:18:09.819Z,97391.53
2022-11-05T04:19:12.775Z,97391.12
2022-11-05T04:20:34.189Z,97393.69
2022-11-05T04:21:55.318Z,97389.25
2022-11-05T04:23:24.897Z,97388.38
2022-11-05T04:24:27.693Z,97386.50
2022-11-05T04:25:30.630Z,97390.81
2022-11-05T04:26:33.661Z,97388.50
2022-11-05T04:27:37.045Z,97396.56
2022-11-05T04:29:00.495Z,97393.25
2022-11-05T04:30:19.404Z,97393.84
2022-11-05T04:31:22.299Z,97390.25
2022-11-05T04:32:25.149Z,97391.66
2022-11-05T04:33:27.909Z,97387.63
2022-11-05T04:34:30.880Z,97395.69
2022-11-05T04:35:51.578Z,97391.97
2022-11-05T04:36:55.147Z,97381.47
2022-11-05T04:37:58.196Z,97379.91
2022-11-05T04:39:01.004Z,97377.59
2022-11-05T04:40:04.136Z,97365.22
2022-11-05T04:41:14.866Z,97374.13
2022-11-05T04:42:17.808Z,97366.38
2022-11-05T04:43:21.015Z,97373.13
2022-11-05T04:44:24.097Z,97373.28
2022-11-05T04:45:29.351Z,97372.84
2022-11-05T04:46:32.539Z,97370.53
2022-11-05T04:47:35.398Z,97377.16
2022-11-05T04:48:39.167Z,97373.69
2022-11-05T04:49:42.117Z,97384.63
2022-11-05T04:50:45.204Z,97382.34
2022-11-05T04:51:48.031Z,97384.66
2022-11-05T04:52:51.503Z,97382.03
2022-11-05T04:53:54.752Z,97378.87
2022-11-05T04:54:57.644Z,97381.91
2022-11-05T04:56:11.265Z,97379.91
2022-11-05T04:57:14.269Z,97385.50
2022-11-05T04:58:18.138Z,97382.19
2022-11-05T04:59:21.132Z,97381.75
2022-11-05T05:00:24.786Z,97381.03
2022-11-05T05:01:27.702Z,97386.66
2022-11-05T05:02:32.245Z,97391.53
2022-11-05T05:03:35.000Z,97387.22
2022-11-05T05:04:37.944Z,97383.91
2022-11-05T05:05:40.717Z,97380.16
2022-11-05T05:06:43.855Z,97382.03
2022-11-05T05:07:46.823Z,97381.47
2022-11-05T05:08:51.702Z,97384.91
2022-11-05T05:09:55.294Z,97381.75
2022-11-05T05:11:05.377Z,97374.72
2022-11-05T05:12:08.296Z,97380.47
2022-11-05T05:13:12.371Z,97373.56
2022-11-05T05:14:15.412Z,97374.44
2022-11-05T05:15:18.567Z,97373.44
2022-11-05T05:16:24.751Z,97381.88
2022-11-05T05:17:27.761Z,97375.28
2022-11-05T05:18:32.896Z,97370.13
2022-11-05T05:19:55.764Z,97371.41
2022-11-05T05:21:18.203Z,97371.41
2022-11-05T05:22:21.247Z,97371.41
2022-11-05T05:23:24.044Z,97375.28
2022-11-05T05:24:26.961Z,97383.06
2022-11-05T05:25:30.376Z,97381.47
2022-11-05T05:26:33.308Z,97386.22
2022-11-05T05:27:36.311Z,97393.97
2022-11-05T05:28:41.084Z,97400.88
2022-11-05T05:29:43.984Z,97401.03
2022-11-05T05:30:46.797Z,97405.34
2022-11-05T05:31:49.630Z,97401.75
2022-11-05T05:32:52.437Z,97403.19
2022-11-05T05:33:56.073Z,97400.16
2022-11-05T05:34:59.004Z,97409.22
2022-11-05T05:36:07.024Z,97407.94
2022-11-05T05:37:12.868Z,97401.00
2022-11-05T05:38:15.787Z,97407.94
2022-11-05T05:39:18.703Z,97406.91
2022-11-05T05:40:21.630Z,97404.78
2022-11-05T05:41:24.705Z,97413.97
2022-11-05T05:42:27.664Z,97409.66
2022-11-05T05:43:32.516Z,97410.81
2022-11-05T05:44:35.338Z,97411.06
2022-11-05T05:45:38.186Z,97413.41
2022-11-05T05:46:40.983Z,97410.66
2022-11-05T05:47:44.070Z,97409.66
2022-11-05T05:48:52.053Z,97419.72
2022-11-05T05:49:55.078Z,97419.13
2022-11-05T05:51:05.963Z,97415.09
2022-11-05T05:52:08.852Z,97417.25
2022-11-05T05:53:11.959Z,97419.56
2022-11-05T05:54:15.158Z,97430.94
2022-11-05T05:55:18.182Z,97439.25
2022-11-05T05:56:21.335Z,97441.00
2022-11-05T05:57:24.078Z,97443.44
2022-11-05T05:58:39.012Z,97442.13
2022-11-05T05:59:41.702Z,97450.59
2022-11-05T06:00:44.861Z,97453.34
2022-11-05T06:01:47.809Z,97454.06
2022-11-05T06:02:50.711Z,97450.63
2022-11-05T06:03:53.701Z,97459.53
2022-11-05T06:04:56.475Z,97472.50
2022-11-05T06:07:17.233Z,97473.47
2022-11-05T06:08:20.910Z,97481.38
2022-11-05T06:09:24.148Z,97479.78
2022-11-05T06:10:27.087Z,97481.38
2022-11-05T06:11:30.006Z,97481.81
2022-11-05T06:12:33.250Z,97484.84
2022-11-05T06:13:36.830Z,97484.84
2022-11-05T06:14:42.781Z,97487.00
2022-11-05T06:15:45.553Z,97482.81
2022-11-05T06:16:48.713Z,97485.25
2022-11-05T06:17:51.699Z,97485.84
2022-11-05T06:18:55.003Z,97491.59
2022-11-05T06:19:57.868Z,97495.63
2022-11-05T06:21:04.965Z,97498.78
2022-11-05T06:22:07.860Z,97494.34
2022-11-05T06:23:10.856Z,97491.31
2022-11-05T06:24:13.803Z,97492.00
2022-11-05T06:25:16.712Z,97499.38
2022-11-05T06:26:20.379Z,97497.06
2022-11-05T06:27:26.936Z,97503.22
2022-11-05T06:28:30.142Z,97510.72
2022-11-05T06:29:33.900Z,97510.44
2022-11-05T06:30:36.913Z,97505.84
2022-11-05T06:31:39.705Z,97514.03
2022-11-05T06:32:42.599Z,97514.44
2022-11-05T06:33:45.365Z,97517.31
2022-11-05T06:34:48.239Z,97514.47
2022-11-05T06:35:51.322Z,97513.59
2022-11-05T06:36:57.747Z,97516.03
2022-11-05T06:38:03.447Z,97508.13
2022-11-05T06:39:10.387Z,97525.94
2022-11-05T06:40:13.275Z,97514.31
2022-11-05T06:41:16.163Z,97523.22
2022-11-05T06:42:19.511Z,97525.66
2022-11-05T06:43:22.477Z,97523.37
2022-11-05T06:44:25.344Z,97526.41
2022-11-05T06:45:28.250Z,97528.12
2022-11-05T06:46:32.968Z,97524.81
2022-11-05T06:47:35.776Z,97517.03
2022-11-05T06:48:40.681Z,97524.53
2022-11-05T06:49:49.391Z,97512.00
2022-11-05T06:50:52.265Z,97528.88
2022-11-05T06:51:55.121Z,97511.28
2022-11-05T06:52:59.907Z,97526.38
2022-11-05T06:54:05.948Z,97521.78
2022-11-05T06:55:09.431Z,97527.69
2022-11-05T06:56:12.452Z,97526.22
2022-11-05T06:57:15.636Z,97526.84
2022-11-05T06:58:18.580Z,97534.03
2022-11-05T06:59:21.441Z,97535.16
2022-11-05T07:00:24.796Z,97534.16
2022-11-05T07:01:27.664Z,97535.91
2022-11-05T07:02:30.794Z,97542.66
2022-11-05T07:03:33.612Z,97540.22
2022-11-05T07:04:40.003Z,97535.91
2022-11-05T07:05:48.647Z,97541.06
2022-11-05T07:06:51.577Z,97532.72
2022-11-05T07:07:54.374Z,97537.63
2022-11-05T07:08:57.219Z,97542.53
2022-11-05T07:10:00.034Z,97544.09
2022-11-05T07:11:03.160Z,97545.41
2022-11-05T07:12:07.092Z,97541.22
2022-11-05T07:13:13.244Z,97543.09
2022-11-05T07:14:16.204Z,97539.78
2022-11-05T07:15:19.157Z,97534.75
2022-11-05T07:16:22.172Z,97553.47
2022-11-05T07:17:25.243Z,97547.13
2022-11-05T07:18:28.006Z,97543.53
2022-11-05T07:19:30.853Z,97547.56
2022-11-05T07:20:34.653Z,97545.13
2022-11-05T07:21:37.557Z,97541.97
2022-11-05T07:22:40.459Z,97541.78
2022-11-05T07:23:43.452Z,97544.25
2022-11-05T07:24:47.527Z,97540.06
2022-11-05T07:25:50.552Z,97552.59
2022-11-05T07:26:53.473Z,97552.59
2022-11-05T07:27:56.433Z,97555.34
2022-11-05T07:28:59.510Z,97554.91
2022-11-05T07:30:02.534Z,97563.69
2022-11-05T07:31:06.394Z,97562.25
2022-11-05T07:32:09.210Z,97557.22
2022-11-05T07:33:15.761Z,97558.94
2022-11-05T07:34:18.441Z,97554.31
2022-11-05T07:35:21.479Z,97549.72
2022-11-05T07:36:24.395Z,97556.63
2022-11-05T07:37:27.530Z,97553.75
2022-11-05T07:38:35.017Z,97556.31
2022-11-05T07:39:38.054Z,97565.25
2022-11-05T07:40:40.878Z,97560.25
2022-11-05T07:41:43.781Z,97549.00
2022-11-05T07:42:51.592Z,97557.47
2022-11-05T07:43:54.453Z,97553.03
2022-11-05T07:45:00.978Z,97554.03
2022-11-05T07:46:03.773Z,97547.28
2022-11-05T07:47:06.570Z,97546.56
2022-11-05T07:48:10.211Z,97556.19
2022-11-05T07:49:13.211Z,97552.72
2022-11-05T07:50:18.069Z,97553.75
2022-11-05T07:51:20.985Z,97548.84
2022-11-05T07:52:23.865Z,97557.62
2022-11-05T07:53:26.747Z,97552.16
2022-11-05T07:54:29.708Z,97552.31
2022-11-05T07:55:32.898Z,97553.59
2022-11-05T07:56:39.338Z,97559.66
2022-11-05T07:57:50.295Z,97553.75
2022-11-05T07:58:53.889Z,97558.94
2022-11-05T07:59:56.636Z,97564.41
2022-11-05T08:00:59.734Z,97551.44
2022-11-05T08:02:02.780Z,97560.94
2022-11-05T08:03:13.236Z,97553.75
2022-11-05T08:04:16.550Z,97548.56
2022-11-05T08:05:19.480Z,97551.59
2022-11-05T08:06:22.830Z,97556.63
2022-11-05T08:07:26.172Z,97548.44
2022-11-05T08:08:30.812Z,97557.47
2022-11-05T08:09:33.734Z,97545.38
2022-11-05T08:10:37.546Z,97541.06
2022-11-05T08:11:40.314Z,97540.47
2022-11-05T08:12:43.225Z,97537.16
2022-11-05T08:13:46.106Z,97537.31
2022-11-05T08:14:48.931Z,97542.62
2022-11-05T08:15:51.767Z,97538.03
2022-11-05T08:16:54.634Z,97536.72
2022-11-05T08:18:00.322Z,97538.59
2022-11-05T08:19:04.934Z,97541.19
2022-11-05T08:20:08.547Z,97545.34
2022-11-05T08:21:11.681Z,97538.16
2022-11-05T08:22:14.478Z,97543.62
2022-11-05T08:23:17.336Z,97533.53
2022-11-05T08:24:20.370Z,97536.16
2022-11-05T08:25:23.770Z,97533.53
2022-11-05T08:26:26.574Z,97529.38
2022-11-05T08:27:29.472Z,97527.22
2022-11-05T08:28:32.326Z,97533.34
2022-11-05T08:29:35.161Z,97527.03
2022-11-05T08:30:38.278Z,97539.28
2022-11-05T08:31:41.013Z,97530.34
2022-11-05T08:32:43.777Z,97533.94
2022-11-05T08:33:46.730Z,97531.34
2022-11-05T08:34:52.791Z,97524.44
2022-11-05T08:35:55.598Z,97529.19
2022-11-05T08:37:01.139Z,97533.50
2022-11-05T08:38:06.462Z,97534.47
2022-11-05T08:39:12.925Z,97540.81
2022-11-05T08:40:19.701Z,97537.97
2022-11-05T08:41:22.456Z,97544.81
2022-11-05T08:42:25.454Z,97544.28
2022-11-05T08:43:28.305Z,97544.88
2022-11-05T08:44:31.110Z,97547.91
2022-11-05T08:45:35.236Z,97548.47
2022-11-05T08:46:41.548Z,97545.88
2022-11-05T08:47:44.625Z,97547.59
2022-11-05T08:48:47.505Z,97545.13
2022-11-05T08:49:50.705Z,97547.00
2022-11-05T08:50:53.672Z,97547.31
2022-11-05T08:51:56.399Z,97549.63
2022-11-05T08:52:59.302Z,97547.91
2022-11-05T08:54:02.172Z,97549.31
2022-11-05T08:55:08.877Z,97548.84
2022-11-05T08:56:11.744Z,97559.41
2022-11-05T08:57:14.582Z,97555.94
2022-11-05T08:58:18.092Z,97550.03
2022-11-05T08:59:21.089Z,97556.81
2022-11-05T09:00:24.429Z,97557.38
2022-11-05T09:01:27.504Z,97551.91
2022-11-05T09:02:31.260Z,97553.78
2022-11-05T09:03:34.328Z,97564.03
2022-11-05T09:04:37.158Z,97573.38
2022-11-05T09:05:41.469Z,97562.28
2022-11-05T09:06:45.159Z,97570.50
2022-11-05T09:07:48.067Z,97564.56
2022-11-05T09:08:50.967Z,97569.87
2022-11-05T09:09:53.736Z,97567.00
2022-11-05T09:10:57.077Z,97572.56
2022-11-05T09:12:12.287Z,97575.19
2022-11-05T09:13:19.242Z,97580.25
2022-11-05T09:14:22.443Z,97578.94
2022-11-05T09:15:25.467Z,97573.59
2022-11-05T09:16:28.614Z,97578.66
2022-11-05T09:17:31.552Z,97584.13
2022-11-05T09:18:35.296Z,97577.63
2022-11-05T09:19:40.041Z,97585.84
2022-11-05T09:20:43.740Z,97580.78
2022-11-05T09:21:46.632Z,97581.34
2022-11-05T09:22:49.537Z,97582.66
2022-11-05T09:23:52.439Z,97582.50
2022-11-05T09:24:55.406Z,97592.16
2022-11-05T09:25:58.193Z,97590.19
2022-11-05T09:27:00.992Z,97586.41
2022-11-05T09:28:16.475Z,97593.72
2022-11-05T09:29:23.019Z,97587.81
2022-11-05T09:30:26.360Z,97586.63
2022-11-05T09:31:29.170Z,97595.03
2022-11-05T09:32:32.811Z,97589.38
2022-11-05T09:33:37.990Z,97592.41
2022-11-05T09:34:41.970Z,97591.53
2022-11-05T09:35:45.749Z,97595.75
2022-11-05T09:36:48.569Z,97591.44
2022-11-05T09:37:54.515Z,97587.38
2022-11-05T09:38:59.702Z,97590.25
2022-11-05T09:40:02.472Z,97596.25
2022-11-05T09:41:12.160Z,97585.16
2022-11-05T09:42:19.824Z,97586.78
2022-11-05T09:43:31.782Z,97594.56
2022-11-05T09:44:52.930Z,97593.41
2022-11-05T09:46:01.288Z,97594.31
2022-11-05T09:47:11.574Z,97581.78
2022-11-05T09:48:18.165Z,97583.81
2022-11-05T09:49:40.154Z,97583.22
2022-11-05T09:50:46.487Z,97578.84
2022-11-05T09:51:49.412Z,97579.41
2022-11-05T09:52:52.270Z,97583.47
2022-11-05T09:53:55.471Z,97577.78
2022-11-05T09:54:58.725Z,97568.25
2022-11-05T09:56:01.627Z,97581.56
2022-11-05T09:57:08.294Z,97585.87
2022-11-05T09:58:23.201Z,97590.78
2022-11-05T09:59:53.926Z,97587.44
2022-11-05T10:00:58.618Z,97583.53
2022-11-05T10:02:39.209Z,97578.78
2022-11-05T10:03:51.860Z,97579.81
2022-11-05T10:04:58.974Z,97573.31
2022-11-05T10:06:08.843Z,97566.91
2022-11-05T10:07:17.649Z,97576.31
2022-11-05T10:08:24.752Z,97578.59
2022-11-05T10:09:38.132Z,97580.75
2022-11-05T10:10:45.704Z,97581.66
2022-11-05T10:12:03.095Z,97566.97
2022-11-05T10:13:18.360Z,97573.31
2022-11-05T10:14:34.135Z,97571.72
2022-11-05T10:15:46.679Z,97580.69
2022-11-05T10:17:05.838Z,97575.72
2022-11-05T10:18:33.272Z,97570.84
2022-11-05T10:19:49.898Z,97572.53
2022-11-05T10:20:52.919Z,97574.97
2022-11-05T10:22:11.163Z,97577.22
2022-11-05T10:23:19.609Z,97578.41
2022-11-05T10:24:24.249Z,97589.50
2022-11-05T10:25:32.105Z,97580.13
2022-11-05T10:26:35.010Z,97587.03
2022-11-05T10:27:38.506Z,97576.50
2022-11-05T10:28:44.249Z,97581.72
2022-11-05T10:29:48.473Z,97571.50
2022-11-05T10:30:57.620Z,97576.78
2022-11-05T10:32:05.815Z,97578.28
2022-11-05T10:33:10.422Z,97576.84
2022-11-05T10:34:18.160Z,97570.28
2022-11-05T10:35:24.584Z,97575.88
2022-11-05T10:36:33.887Z,97572.53
2022-11-05T10:37:40.871Z,97577.13
2022-11-05T10:38:44.137Z,97574.50
2022-11-05T10:39:46.967Z,97567.72
2022-11-05T10:41:00.672Z,97575.63
2022-11-05T10:42:38.534Z,97574.19
2022-11-05T10:43:49.546Z,97574.00
2022-11-05T10:45:17.005Z,97570.50
2022-11-05T10:46:36.636Z,97577.47
2022-11-05T10:47:53.287Z,97575.88
2022-11-05T10:49:42.966Z,97573.84
2022-11-05T10:50:46.151Z,97574.84
2022-11-05T10:51:57.801Z,97576.97
2022-11-05T10:53:12.972Z,97578.41
2022-11-05T10:54:23.228Z,97579.22
2022-11-05T10:55:33.995Z,97583.88
2022-11-05T10:56:39.093Z,97584.75
2022-11-05T10:57:42.154Z,97585.56
2022-11-05T10:58:56.832Z,97596.22
2022-11-05T11:00:16.887Z,97580.13
2022-11-05T11:01:20.200Z,97593.78
2022-11-05T11:02:27.208Z,97591.06
2022-11-05T11:03:38.092Z,97598.59
2022-11-05T11:04:41.273Z,97598.03
2022-11-05T11:05:44.150Z,97608.19
2022-11-05T11:06:53.012Z,97594.22
2022-11-05T11:07:58.819Z,97594.22
2022-11-05T11:09:10.807Z,97601.88
2022-11-05T11:10:24.737Z,97595.06
2022-11-05T11:11:33.692Z,97596.38
2022-11-05T11:12:42.977Z,97590.16
2022-11-05T11:13:52.441Z,97596.12
2022-11-05T11:15:02.283Z,97588.59
2022-11-05T11:16:37.112Z,97586.69
2022-11-05T11:17:40.063Z,97583.75
2022-11-05T11:18:44.053Z,97585.41
2022-11-05T11:19:48.817Z,97586.56
2022-11-05T11:21:14.625Z,97583.09
2022-11-05T11:22:20.975Z,97594.34
2022-11-05T11:23:23.910Z,97589.56
2022-11-05T11:24:32.489Z,97591.47
2022-11-05T11:25:53.587Z,97593.75
2022-11-05T11:27:03.454Z,97579.94
2022-11-05T11:28:14.437Z,97586.75
2022-11-05T11:29:30.061Z,97585.19
2022-11-05T11:30:34.110Z,97589.00
2022-11-05T11:31:40.030Z,97597.56
2022-11-05T11:32:43.275Z,97593.66
2022-11-05T11:33:49.504Z,97590.06
2022-11-05T11:34:54.718Z,97589.94
2022-11-05T11:35:58.569Z,97585.87
2022-11-05T11:37:09.305Z,97593.06
2022-11-05T11:38:16.063Z,97593.19
2022-11-05T11:39:30.813Z,97598.69
2022-11-05T11:40:37.539Z,97596.88
2022-11-05T11:41:43.083Z,97600.47
2022-11-05T11:42:50.846Z,97593.06
2022-11-05T11:43:59.809Z,97590.78
2022-11-05T11:45:45.018Z,97597.84
2022-11-05T11:46:55.248Z,97591.13
2022-11-05T11:47:58.322Z,97596.06
2022-11-05T11:49:02.749Z,97596.41
2022-11-05T11:50:05.960Z,97593.31
2022-11-05T11:51:38.199Z,97599.97
2022-11-05T11:52:41.116Z,97594.84
2022-11-05T11:53:44.356Z,97595.69
2022-11-05T11:54:50.837Z,97593.41
2022-11-05T11:56:21.041Z,97585.87
2022-11-05T11:57:29.856Z,97579.09
2022-11-05T11:58:49.289Z,97581.50
2022-11-05T12:00:14.637Z,97583.75
2022-11-05T12:01:39.688Z,97585.53
2022-11-05T12:02:47.887Z,97590.41
2022-11-05T12:04:12.626Z,97592.09
2022-11-05T12:05:31.473Z,97598.66
2022-11-05T12:06:47.411Z,97594.47
2022-11-05T12:08:07.144Z,97594.47
2022-11-05T12:09:51.463Z,97587.31
2022-11-05T12:11:13.527Z,97595.09
2022-11-05T12:12:20.664Z,97583.78
2022-11-05T12:13:23.447Z,97591.91
2022-11-05T12:14:46.736Z,97586.78
2022-11-05T12:15:53.447Z,97592.97
2022-11-05T12:17:38.173Z,97590.47
2022-11-05T12:18:56.112Z,97588.81
2022-11-05T12:20:23.232Z,97583.78
2022-11-05T12:21:53.131Z,97597.41
2022-11-05T12:22:56.293Z,97597.16
2022-11-05T12:24:22.035Z,97595.03
2022-11-05T12:25:33.880Z,97593.22
2022-11-05T12:26:56.009Z,97604.31
2022-11-05T12:28:20.252Z,97600.87
2022-11-05T12:29:47.973Z,97618.19
2022-11-05T12:31:10.402Z,97606.97
2022-11-05T12:32:31.004Z,97612.69
2022-11-05T12:33:47.012Z,97620.47
2022-11-05T12:35:04.778Z,97614.38
2022-11-05T12:36:10.579Z,97620.91
2022-11-05T12:37:34.866Z,97612.81
2022-11-05T12:39:05.185Z,97609.22
2022-11-05T12:40:21.646Z,97621.44
2022-11-05T12:41:39.309Z,97611.62
2022-11-05T12:42:57.978Z,97617.97
2022-11-05T12:44:12.886Z,97613.53
2022-11-05T12:45:18.694Z,97608.75
2022-11-05T12:46:27.399Z,97608.66
2022-11-05T12:47:54.386Z,97619.16
2022-11-05T12:49:15.756Z,97614.38
2022-11-05T12:50:44.799Z,97625.00
2022-11-05T12:51:56.400Z,97628.47
2022-11-05T12:53:01.810Z,97628.97
2022-11-05T12:54:16.764Z,97633.75
2022-11-05T12:55:23.671Z,97644.94
2022-11-05T12:56:49.181Z,97639.44
2022-11-05T12:58:08.787Z,97638.75
2022-11-05T12:59:24.704Z,97641.47
2022-11-05T13:00:30.298Z,97640.16
2022-11-05T13:01:42.034Z,97638.75
2022-11-05T13:03:22.766Z,97642.34
2022-11-05T13:04:53.619Z,97643.88
2022-11-05T13:06:14.557Z,97638.63
2022-11-05T13:07:28.636Z,97642.00
2022-11-05T13:09:02.282Z,97642.56
2022-11-05T13:10:21.035Z,97644.22
2022-11-05T13:11:40.055Z,97650.44
2022-11-05T13:12:44.783Z,97646.16
2022-11-05T13:14:02.224Z,97653.81
2022-11-05T13:15:28.243Z,97661.09
2022-11-05T13:16:36.373Z,97657.97
2022-11-05T13:17:44.190Z,97655.13
2022-11-05T13:18:56.138Z,97657.00
2022-11-05T13:20:19.481Z,97658.81
2022-11-05T13:21:25.831Z,97657.97
2022-11-05T13:23:04.141Z,97666.22
2022-11-05T13:24:27.595Z,97665.50
2022-11-05T13:25:35.800Z,97673.41
2022-11-05T13:27:01.651Z,97667.41
2022-11-05T13:28:38.034Z,97662.38
2022-11-05T13:29:50.620Z,97664.78
2022-11-05T13:30:58.438Z,97662.41
2022-11-05T13:32:24.850Z,97673.41
2022-11-05T13:33:54.872Z,97666.72
2022-11-05T13:34:59.840Z,97668.25